x

8413320 - Bar Harbor, Me (atgm1) Weather Station

5:54 - Mon 22nd Dec 2014 All times are EST. -5 hours from GMT.

  • Wind
    9mph, 11mph gusts
  • Sea Temp 42°f
  • Ar Temp 35°f
  • Sea Pressure 1029.6mb
  • 8413320 - Bar Harbor, Me
  • 8413320 - Bar Harbor, Me

More Historic Weather Station data

Upgrade to MSW Pro to gain access to the past 30 days of data for over 8000 Wavebouys and Weather Stations around the globe.

Join Pro

Comparision Forecast

View Surf forecast
   
Seg 12/22 5:54 9 11 mph 1029.6mb 42f 35f
5:48 9
mph
1029.7mb 42f 36f
5:42 9 10 mph 1029.6mb 42f 36f
5:36 8 10 mph 1029.7mb 42f 36f
5:30 7 8 mph 1029.8mb 42f 36f
5:24 6 8 mph 1029.8mb 42f 36f
5:18 6 7 mph 1029.8mb 42f 36f
5:12 5 7 mph 1029.8mb 42f 36f
5:00 7 9 mph 1029.7mb 42f 36f
4:54 7 9 mph 1029.6mb 42f 36f
4:48 7 8 mph 1029.6mb 42f 36f
4:42 5 6 mph 1029.7mb 42f 36f
4:36 6 7 mph 1029.7mb 42f 37f
4:30 6 7 mph 1029.7mb 42f 37f
4:24 5 6 mph 1029.8mb 42f 37f
4:18 6 7 mph 1029.8mb 42f 37f
4:12 6 7 mph 1029.7mb 42f 37f
4:06 3 5 mph 1029.8mb 42f 37f
4:00 3
mph
1029.9mb 42f 37f
3:54 3 5 mph 1029.8mb 42f 37f
3:48 3 5 mph 1029.7mb 42f 37f
3:42 5 7 mph 1029.7mb 42f 37f
3:36 5 6 mph 1029.6mb 42f 37f
3:30 5
mph
1029.5mb 42f 37f
3:24 5 6 mph 1029.5mb 42f 37f
3:18 5 6 mph 1029.4mb 42f 37f
3:12 3 6 mph 1029.4mb 42f 37f
3:06 5
mph
1029.4mb 42f 37f
3:00 5
mph
1029.4mb 42f 37f
2:54 3 6 mph 1029.4mb 42f 37f
2:48 5 6 mph 1029.4mb 42f 37f
2:42 3 6 mph 1029.3mb 42f 37f
2:36 5 6 mph 1029.3mb 42f 37f
2:30 6 7 mph 1029.3mb 42f 37f
2:24 5 6 mph 1029.2mb 42f 37f
2:12 5 6 mph 1029.1mb 42f 37f
2:06 3 5 mph 1029.1mb 42f 37f
2:00 3 6 mph 1029mb 42f 37f
1:54 5 6 mph 1028.9mb 42f 37f
1:48 6 7 mph 1028.9mb 42f 37f
1:42 5 7 mph 1028.9mb 42f 37f
1:36 5 7 mph 1028.9mb 42f 37f
1:30 6 7 mph 1028.8mb 42f 37f
1:24 6 7 mph 1028.8mb 42f 37f
1:18 6 8 mph 1028.9mb 42f 37f
1:12 6 8 mph 1029mb 42f 37f
1:06 6 7 mph 1029mb 42f 37f
1:00 6 8 mph 1029.1mb 42f 37f
12:54 6 7 mph 1029.1mb 42f 37f
12:48 6 7 mph 1029.1mb 42f 37f
12:42 6 7 mph 1029.2mb 42f 37f
12:36 6 8 mph 1029.3mb 42f 37f
12:30 6 7 mph 1029.3mb 42f 37f
12:24 6 7 mph 1029.3mb 42f 37f
12:18 6 7 mph 1029.4mb 42f 36f
12:12 6
mph
1029.5mb 42f 37f
12:06 3 7 mph 1029.5mb 42f 36f
12:00 5 7 mph 1029.6mb 42f 36f
11:54 6 7 mph 1029.6mb 42f 36f
11:48 3 6 mph 1029.8mb 42f 36f
11:42 3 6 mph 1029.8mb 42f 36f
11:36 5 7 mph 1029.9mb 42f 36f
11:30 6 7 mph 1029.9mb 42f 36f
11:24 2 3 mph 1030mb 42f 36f
11:18 3 6 mph 1030.1mb 42f 35f
11:12 6 8 mph 1030.1mb 42f 35f
11:06 5 6 mph 1030.1mb 42f 35f
11:00 5 6 mph 1030.2mb 42f 35f
10:54 5 6 mph 1030.3mb 42f 35f
10:48 6 7 mph 1030.4mb 42f 35f
10:42 6 7 mph 1030.4mb 42f 35f
10:36 6 7 mph 1030.5mb 42f 35f
10:30 2 3 mph 1030.6mb 42f 35f
10:24 2 5 mph 1030.7mb 42f 35f
10:18  -  3 mph 1030.8mb 42f 35f
10:12  -  2 mph 1030.8mb 43f 35f
10:06  -  1 mph 1030.9mb 42f 35f
10:00  -  5 mph 1030.9mb 42f 35f
9:54 2 3 mph 1030.9mb 43f 34f
9:48 2 3 mph 1030.9mb 43f 34f
9:42 2 3 mph 1031mb 43f 34f
9:36  -  2 mph 1030.9mb 43f 34f
9:30 1 2 mph 1030.9mb 43f 34f
9:24 2 5 mph 1030.9mb 43f 33f
9:18 3 5 mph 1030.9mb 43f 33f
9:12 3
mph
1030.9mb 43f 33f
9:06 2 3 mph 1030.8mb 43f 33f
9:00 3
mph
1030.8mb 43f 33f
8:54 3 5 mph 1030.8mb 43f 33f
8:48 3 5 mph 1030.8mb 43f 33f
8:42 1 5 mph 1030.8mb 43f 33f
8:36 3 5 mph 1030.7mb 43f 33f
8:30 2 5 mph 1030.8mb 43f 33f
8:24 2 3 mph 1030.8mb 43f 33f
8:18 2
mph
1030.8mb 43f 33f
8:12 2 5 mph 1030.8mb 43f 32f
8:06 1 3 mph 1030.7mb 43f 33f
8:00 1 3 mph 1030.7mb 43f 32f
7:54 2 3 mph 1030.6mb 43f 33f
7:48 2 5 mph 1030.6mb 43f 32f
7:42 3 5 mph 1030.5mb 43f 32f
7:36 3 5 mph 1030.5mb 43f 32f
7:30 3 5 mph 1030.4mb 43f 32f
7:24 3 5 mph 1030.3mb 43f 32f
7:18 2 5 mph 1030.3mb 43f 32f
7:12 5 6 mph 1030.3mb 43f 32f
7:06 3 7 mph 1030.2mb 43f 32f
7:00 6
mph
1030.1mb 43f 32f
6:54 2 3 mph 1030.1mb 43f 32f
6:48  -  1 mph 1030mb 43f 32f
6:42 1 2 mph 1030mb 43f 32f
6:36  -  2 mph 1029.9mb 43f 32f
6:30  -  1 mph 1029.7mb 43f 32f
6:24 1 2 mph 1029.8mb 43f 32f
6:18  -  1 mph 1029.7mb 43f 32f
6:12  -  2 mph 1029.6mb 43f 32f
6:06 2 3 mph 1029.5mb 43f 32f
6:00 2 3 mph 1029.5mb 43f 32f
5:54 1 5 mph 1029.5mb 43f 31f
5:48 3 6 mph 1029.4mb 43f 31f
5:42 3 6 mph 1029.3mb 43f 31f
5:36 5 6 mph 1029.3mb 43f 31f
5:30 5 7 mph 1029.3mb 43f 31f
5:24 5 6 mph 1029.3mb 43f 31f
5:18 5 6 mph 1029.2mb 43f 31f
5:12 5 6 mph 1029.2mb 42f 31f
5:06 5 6 mph 1029.2mb 42f 32f
5:00 5 6 mph 1029.2mb 42f 32f
4:54 5 6 mph 1029.2mb 42f 32f
4:48 5 6 mph 1029.2mb 42f 32f
4:42 5 6 mph 1029.2mb 43f 32f
4:36 6 7 mph 1029.1mb 43f 31f
4:30 3 6 mph 1029.1mb 43f 31f
4:24 3 6 mph 1029.1mb 43f 31f
4:18 5 6 mph 1029.1mb 42f 31f
4:12 5 6 mph 1029.2mb 42f 31f
4:06 5 6 mph 1029.2mb 42f 31f
4:00 3 6 mph 1029.2mb 42f 31f
3:54 5 7 mph 1029.2mb 42f 31f
3:48 6 7 mph 1029.2mb 42f 31f
3:42 6 7 mph 1029.1mb 42f 31f
3:36 6
mph
1029.2mb 42f 31f
3:30 6 7 mph 1029.2mb 42f 31f
3:24 5 6 mph 1029.2mb 42f 31f
3:18 6 7 mph 1029.2mb 42f 31f
3:12 5 6 mph 1029.3mb 42f 31f
3:06 3 5 mph 1029.3mb 42f 31f
3:00 5 6 mph 1029.3mb 42f 31f
2:54 3 6 mph 1029.3mb 42f 31f
2:48 5 6 mph 1029.3mb 42f 31f
2:42 5 6 mph 1029.2mb 42f 31f
2:36 5 6 mph 1029.2mb 42f 31f
2:30 3 5 mph 1029.2mb 42f 31f
2:24 5 7 mph 1029.2mb 42f 31f
2:18 6 7 mph 1029.3mb 42f 31f
2:12 5 6 mph 1029.3mb 42f 31f
2:06 2 5 mph 1029.4mb 42f 31f
2:00 3 7 mph 1029.3mb 42f 31f
1:54 5 7 mph 1029.2mb 42f 31f
1:48 6 7 mph 1029.2mb 42f 31f
1:42 6 7 mph 1029.2mb 42f 31f
1:36 6 7 mph 1029.2mb 42f 31f
1:30 6 7 mph 1029.2mb 42f 31f
1:24 6 7 mph 1029.1mb 42f 31f
1:18 5 7 mph 1029.1mb 42f 32f
1:12 5 8 mph 1029mb 42f 31f
1:06 6 8 mph 1029mb 42f 32f
1:00 6 7 mph 1029mb 42f 31f
12:54 3 7 mph 1028.9mb 42f 32f
12:48 5 7 mph 1028.9mb 42f 31f
12:42 6
mph
1028.9mb 42f 31f
12:36 5 6 mph 1028.9mb 42f 31f
12:30 5 7 mph 1028.9mb 42f 31f
12:24 6 7 mph 1028.9mb 42f 31f
12:18 6 7 mph 1029mb 42f 31f
12:12 5 6 mph 1029mb 42f 31f
12:06 5 7 mph 1029.1mb 42f 31f
12:00 5 7 mph 1029.1mb 42f 32f
Dom 12/21 11:54 3 6 mph 1029.2mb 42f 31f
11:48 3 5 mph 1029.1mb 42f 31f
11:42 3 6 mph 1029.1mb 42f 31f
11:36 5 6 mph 1029.1mb 42f 31f
11:30 3 6 mph 1029.2mb 42f 31f
11:24 5 6 mph 1029.1mb 42f 31f
11:18 3 7 mph 1029.1mb 42f 31f
11:12 6 7 mph 1029.1mb 43f 31f
11:06 6 7 mph 1029.1mb 43f 31f
11:00 6 8 mph 1029.1mb 43f 31f
10:54 6
mph
1029.1mb 43f 31f
10:48 5 7 mph 1029.1mb 43f 31f
10:42 3 6 mph 1029.1mb 43f 31f
10:36 6 7 mph 1029mb 43f 31f
10:30 3 5 mph 1029mb 43f 32f
10:24 2 5 mph 1029mb 43f 32f
10:18 3
mph
1029mb 43f 31f
10:12 2 5 mph 1028.9mb 43f 31f
10:06 3
mph
1028.9mb 43f 32f
10:00 3
mph
1028.9mb 43f 32f
9:54 2
mph
1028.8mb 43f 32f
9:48 1 2 mph 1028.7mb 43f 32f
9:42 2 5 mph 1028.7mb 43f 31f
9:36 2 3 mph 1028.6mb 43f 31f
9:30 2 5 mph 1028.6mb 43f 31f
9:24 2 3 mph 1028.5mb 43f 31f
9:18 2 5 mph 1028.5mb 43f 31f
9:12 5 6 mph 1028.5mb 43f 31f
9:06 5 6 mph 1028.4mb 43f 32f
9:00 5 6 mph 1028.4mb 43f 32f
8:54 6 7 mph 1028.4mb 43f 31f
8:48 5 7 mph 1028.4mb 43f 32f
8:42 6 7 mph 1028.3mb 43f 32f
8:36 6 7 mph 1028.2mb 43f 32f
8:30 5 7 mph 1028.2mb 43f 32f
8:24 5 8 mph 1028.2mb 43f 32f
8:18 6 7 mph 1028.2mb 43f 32f
8:12 6 7 mph 1028.2mb 43f 32f
8:00 6 7 mph 1028.2mb 43f 32f
7:54 6 7 mph 1028.2mb 43f 32f
7:48 5 7 mph 1028.2mb 43f 32f
7:36 5 7 mph 1028.3mb 43f 32f
7:30 5 7 mph 1028.3mb 43f 32f
7:24 6 7 mph 1028.3mb 43f 32f
7:18 7 8 mph 1028.3mb 43f 32f
7:12 6 8 mph 1028.3mb 43f 32f
7:06 5 6 mph 1028.3mb 43f 33f
7:00 5 7 mph 1028.3mb 43f 32f
6:54 5 6 mph 1028.3mb 43f 32f
6:48 5 6 mph 1028.2mb 43f 33f
6:42 5 6 mph 1028.1mb 43f 32f
6:36 5 6 mph 1028.1mb 42f 33f
6:30 5 7 mph 1028.1mb 42f 33f
6:24 5 6 mph 1028.1mb 42f 32f
6:18 5 6 mph 1028.2mb 42f 33f
6:12 5 7 mph 1028.1mb 42f 33f
6:06 3 7 mph 1028.1mb 42f 33f
6:00 5 7 mph 1028mb 42f 33f
5:54 5 7 mph 1027.9mb 42f 33f
5:48 6 7 mph 1027.9mb 42f 32f
5:42 5 7 mph 1027.9mb 42f 33f
5:36 5 6 mph 1027.9mb 42f 33f
5:30 6 8 mph 1027.9mb 42f 33f
5:24 6 7 mph 1027.9mb 42f 33f
5:18 5 8 mph 1027.8mb 42f 33f
5:00 3 8 mph 1027.7mb 42f 33f
4:54 6 8 mph 1027.7mb 42f 33f
4:48 6 8 mph 1027.7mb 42f 33f
4:42 6 7 mph 1027.7mb 42f 33f
4:36 6 8 mph 1027.6mb 42f 33f
4:30 6 8 mph 1027.5mb 42f 33f
4:24 6 8 mph 1027.5mb 42f 33f
4:18 7 8 mph 1027.4mb 42f 33f
4:12 7 8 mph 1027.4mb 42f 33f
4:06 8 9 mph 1027.4mb 42f 33f
4:00 7 9 mph 1027.4mb 42f 33f
3:54 6 10 mph 1027.4mb 42f 33f
3:48 7 9 mph 1027.3mb 42f 33f
3:42 6 9 mph 1027.3mb 42f 33f
3:36 7 8 mph 1027.2mb 42f 33f
3:30 7 9 mph 1027.2mb 42f 33f
3:24 8 10 mph 1027.1mb 42f 33f
3:18 6 8 mph 1027.1mb 42f 34f
3:12 6 8 mph 1027.1mb 42f 34f
3:06 6 8 mph 1027.1mb 42f 34f
3:00 6 7 mph 1027mb 42f 34f
2:54 5 7 mph 1027mb 42f 34f
2:48 7 9 mph 1027mb 42f 34f
2:42 6 9 mph 1026.9mb 42f 34f
2:30 8 10 mph 1026.8mb 42f 34f
2:24 8 9 mph 1026.8mb 42f 34f
2:18 6 9 mph 1026.8mb 42f 34f
2:12 7 9 mph 1026.8mb 42f 34f
2:06 8 9 mph 1026.8mb 42f 34f
2:00 8 11 mph 1026.7mb 42f 34f
1:54 7 9 mph 1026.7mb 42f 34f
1:48 6 8 mph 1026.7mb 42f 34f
1:42 7 10 mph 1026.7mb 42f 34f
1:36 7 10 mph 1026.6mb 42f 34f
1:30 8 9 mph 1026.7mb 42f 34f
1:24 7 9 mph 1026.7mb 42f 34f
1:18 8 10 mph 1026.7mb 42f 34f
1:12 6 9 mph 1026.7mb 43f 34f
1:06 9 13 mph 1026.7mb 43f 34f
1:00 9 10 mph 1026.7mb 43f 34f
12:54 9 11 mph 1026.8mb 43f 34f
12:48 7 10 mph 1026.8mb 43f 34f
12:42 7 9 mph 1026.8mb 43f 34f
12:36 7 9 mph 1026.8mb 43f 34f
12:30 6 9 mph 1026.8mb 43f 34f
12:24 7 10 mph 1026.8mb 43f 34f
12:12 8 10 mph 1026.8mb 43f 34f
12:06 7 8 mph 1026.8mb 43f 34f
12:00 8 9 mph 1026.8mb 43f 34f
11:54 6 7 mph 1026.9mb 43f 34f
11:48 6 8 mph 1026.9mb 43f 34f
11:42 6 9 mph 1026.9mb 43f 34f
11:36 6 8 mph 1026.9mb 43f 33f
11:30 7 8 mph 1027mb 43f 34f
11:24 7 8 mph 1027.1mb 43f 33f
11:18 3 6 mph 1027.1mb 43f 33f
11:12 5 8 mph 1027.1mb 43f 33f
11:00 1 6 mph 1027.3mb 43f 33f
10:54 5 7 mph 1027.4mb 43f 33f
10:48 3 6 mph 1027.4mb 43f 32f
10:42 5 7 mph 1027.5mb 43f 32f
10:36 5 7 mph 1027.6mb 43f 32f
10:30 1 6 mph 1027.6mb 43f 32f
10:24 7 8 mph 1027.7mb 43f 32f
10:18  -  6 mph 1027.8mb 43f 33f
10:12 1 3 mph 1027.9mb 43f 32f
10:06 3 8 mph 1027.9mb 43f 32f
10:00 5 8 mph 1027.9mb 43f 32f
9:54 6 9 mph 1028mb 43f 32f
9:48 6 8 mph 1027.9mb 43f 32f
9:30 6 8 mph 1028.2mb 43f 32f
9:24 6 8 mph 1028.1mb 43f 32f
9:18 7 9 mph 1028.1mb 43f 31f
9:12 5 6 mph 1028mb 43f 31f
9:06 1 2 mph 1028mb 43f 32f
9:00  -  2 mph 1027.9mb 43f 32f
8:54 2 3 mph 1027.8mb 43f 31f
8:48 5 6 mph 1027.8mb 43f 31f
8:42 5 10 mph 1027.8mb 43f 31f
8:36 8 10 mph 1027.8mb 43f 31f
8:30 7 11 mph 1027.8mb 43f 31f
8:24 9 13 mph 1027.7mb 44f 31f
8:18 9 13 mph 1027.8mb 44f 31f
8:12 8 13 mph 1027.7mb 44f 32f
8:06 9 13 mph 1027.7mb 44f 31f
8:00 7 10 mph 1027.6mb 44f 31f
7:54 7 9 mph 1027.6mb 44f 31f
7:48 6 8 mph 1027.6mb 44f 31f
7:42 7 9 mph 1027.6mb 44f 31f
7:36 8 10 mph 1027.6mb 44f 31f
7:30 7 11 mph 1027.5mb 43f 31f
7:24 9 11 mph 1027.5mb 43f 31f
7:18 7 10 mph 1027.6mb 43f 31f
7:12 7 9 mph 1027.6mb 43f 31f
7:06 6 8 mph 1027.6mb 43f 31f
7:00 5 6 mph 1027.5mb 43f 31f
6:54 3 5 mph 1027.5mb 43f 31f
6:48 3 7 mph 1027.5mb 43f 31f
6:42 3 7 mph 1027.5mb 43f 31f
6:30 6 8 mph 1027.1mb 43f 30f
6:24 5 8 mph 1027.2mb 43f 30f
6:18 6 8 mph 1027.1mb 43f 31f
6:12 6 11 mph 1027.1mb 43f 30f
6:06 5 9 mph 1027.1mb 43f 31f
6:00 6 10 mph 1027.1mb 43f 31f
5:54 5 7 mph 1027.1mb 43f 31f
5:48 3 8 mph 1027.1mb 43f 31f
5:42 5 7 mph 1027mb 43f 31f
5:36 5 7 mph 1027mb 43f 31f
5:30 5 7 mph 1027mb 43f 31f
5:24 5 6 mph 1027mb 43f 30f
5:18 3 7 mph 1027mb 42f 30f
5:12 3 7 mph 1027mb 42f 30f
5:06 5 6 mph 1027.1mb 42f 30f
5:00 5 7 mph 1027.1mb 42f 30f
4:54 5 6 mph 1027.1mb 42f 30f
4:48 2 6 mph 1027.1mb 42f 30f
4:36 5 7 mph 1027.1mb 43f 30f
4:30 6 7 mph 1027.1mb 43f 30f
4:24 3 6 mph 1027mb 43f 30f
4:18 5 6 mph 1027mb 43f 30f
4:12 5 7 mph 1027mb 43f 30f
4:06 6 7 mph 1026.9mb 43f 30f
4:00 5 6 mph 1027mb 43f 30f
3:54 5 6 mph 1027mb 43f 30f
3:48 3 6 mph 1027mb 42f 30f
3:42 5 6 mph 1027mb 42f 30f
3:36 5 6 mph 1027.1mb 42f 30f
3:30 3 6 mph 1027mb 42f 30f
3:24 5 7 mph 1027.1mb 42f 30f
3:18 6 8 mph 1027.1mb 42f 30f
3:12 6 8 mph 1027.1mb 42f 30f
3:06 3 6 mph 1027.1mb 42f 30f
3:00 3 7 mph 1027mb 42f 30f
2:54 3 7 mph 1027.1mb 42f 30f
2:48 6 8 mph 1027.1mb 42f 29f
2:42 5 7 mph 1027.1mb 42f 30f
2:36 5 6 mph 1027.2mb 42f 30f
2:30 6 9 mph 1027.2mb 42f 29f
2:24 6 9 mph 1027.2mb 42f 30f
2:18 5 7 mph 1027.2mb 42f 30f
2:12 5 6 mph 1027.1mb 42f 30f
2:06 5 7 mph 1027.1mb 42f 30f
2:00 5 8 mph 1027.1mb 42f 30f
1:54 6 8 mph 1027.1mb 42f 30f
1:48 6 8 mph 1027.1mb 42f 30f
1:42 6 8 mph 1027.1mb - 30f
1:36 6 10 mph 1027mb - 30f
1:30 7 8 mph 1027mb - 29f
1:24 5 8 mph 1026.9mb - 30f
1:18 6 8 mph 1026.9mb 42f 29f
1:12 5 7 mph 1026.9mb 42f 30f
1:06 5 8 mph 1026.8mb 42f 29f
1:00 6 7 mph 1026.8mb 42f 29f
12:54 6 7 mph 1026.8mb 42f 29f
12:48 5 8 mph 1026.7mb 42f 29f
12:42 6 9 mph 1026.6mb 42f 29f
12:36 7 10 mph 1026.6mb 42f 29f
12:30 7 10 mph 1026.6mb 42f 29f
12:24 6 9 mph 1026.7mb 42f 29f
12:18 6 9 mph 1026.7mb 42f 29f
12:12 7 9 mph 1026.7mb 42f 29f
12:06 8 10 mph 1026.7mb 42f 29f
12:00 7 8 mph 1026.7mb 42f 29f
Sáb 12/20 11:54 6 9 mph 1026.8mb 42f 29f
11:48 7 9 mph 1026.9mb 42f 29f
11:42 7 9 mph 1026.9mb 42f 29f
11:36 6 8 mph 1026.9mb 42f 29f
11:30 6 9 mph 1027mb 42f 29f
11:24 6 9 mph 1027mb 42f 29f
11:18 6 9 mph 1027.1mb 42f 29f
11:12 6 9 mph 1027.2mb 42f 29f
11:06 8 10 mph 1027.2mb 42f 29f
11:00 6 9 mph 1027.3mb 42f 29f
10:54 7 10 mph 1027.3mb 42f 29f
10:48 7 9 mph 1027.4mb 42f 29f
10:42 7 10 mph 1027.4mb 42f 29f
10:36 7 9 mph 1027.4mb 42f 29f
10:30 7 10 mph 1027.5mb 42f 29f
10:24 8 9 mph 1027.5mb 42f 29f
10:18 7 10 mph 1027.5mb 42f 29f
10:12 8 10 mph 1027.4mb 42f 29f
10:06 7 10 mph 1027.5mb 43f 29f
10:00 6 8 mph 1027.4mb 43f 29f
9:54 7 11 mph 1027.4mb 43f 29f
9:48 9 11 mph 1027.4mb 43f 29f
9:42 8 11 mph 1027.4mb 43f 29f
9:36 10 13 mph 1027.5mb 43f 29f
9:30 10 13 mph 1027.4mb 43f 29f
9:24 9 11 mph 1027.4mb 43f 28f
9:18 8 10 mph 1027.4mb 43f 29f
9:12 7 9 mph 1027.4mb 43f 28f
9:06 8 10 mph 1027.4mb 43f 29f
9:00 7 10 mph 1027.5mb 43f 29f
8:54 8 10 mph 1027.4mb 43f 28f
8:48 9 11 mph 1027.4mb 43f 28f
8:42 8 10 mph 1027.4mb 43f 28f
8:36 8 10 mph 1027.4mb 43f 28f
8:30 8 11 mph 1027.3mb 43f 28f
8:24 7 10 mph 1027.3mb 43f 28f
8:18 7 8 mph 1027.3mb 43f 28f
8:12 6 8 mph 1027.2mb 43f 28f
8:06 7 10 mph 1027.2mb 43f 28f
8:00 8 11 mph 1027.2mb 43f 28f
7:54 8 10 mph 1027.2mb 43f 28f
7:48 9 11 mph 1027.3mb 43f 28f
7:42 9 11 mph 1027.2mb 43f 28f
7:36 7 10 mph 1027.2mb 43f 28f
7:30 8 10 mph 1027.2mb 43f 28f
7:24 7 10 mph 1027.2mb 42f 27f
7:18 9 10 mph 1027.3mb 42f 28f
7:12 7 11 mph 1027.3mb 42f 28f
7:06 8 10 mph 1027.3mb 42f 28f
7:00 7 10 mph 1027.3mb 42f 28f
6:54 8 9 mph 1027.4mb 43f 28f
6:48 8 11 mph 1027.3mb 42f 28f
6:42 7 9 mph 1027.3mb 42f 28f
6:36 8 10 mph 1027.3mb 42f 28f
6:30 6 9 mph 1027.3mb 42f 28f
6:24 6 9 mph 1027.3mb 42f 28f
6:18 6 9 mph 1027.3mb 42f 28f
6:12 7 9 mph 1027.3mb 42f 28f
6:06 7 10 mph 1027.3mb 42f 28f
5:54 6 9 mph 1027.3mb 42f 28f
5:48 8 9 mph 1027.3mb 42f 28f
5:42 6 8 mph 1027.4mb 42f 28f
5:36 6 8 mph 1027.4mb 42f 28f
5:30 7 8 mph 1027.3mb 42f 28f
5:24 7 8 mph 1027.3mb 42f 28f
5:18 6 11 mph 1027.1mb 42f 28f
5:06 6 9 mph 1027.1mb 42f 28f
5:00 8 9 mph 1027.1mb 42f 28f
4:54 8 10 mph 1027mb 42f 28f
4:48 5 7 mph 1027mb 42f 28f
4:42 6 9 mph 1027mb 42f 28f
4:36 6 10 mph 1027mb 42f 28f
4:30 7 13 mph 1027mb 41f 28f
4:24 7 11 mph 1026.9mb 42f 27f
4:18 8 13 mph 1026.8mb 41f 28f
4:12 8 13 mph 1026.7mb 41f 27f
4:06 11 15 mph 1026.6mb 41f 27f
4:00 9 13 mph 1026.4mb 40f 27f
3:54 8 16 mph 1026.4mb 40f 28f
3:48 9 14 mph 1026.4mb 40f 27f
3:42 10 15 mph 1026.2mb 40f 27f
3:36 11 17 mph 1026.2mb 40f 27f
3:30 11 17 mph 1026.1mb 40f 27f
3:24 13 18 mph 1026.2mb 40f 27f
3:18 13 16 mph 1026.1mb 40f 27f
3:12 11 18 mph 1026.1mb 40f 27f
3:06 15 17 mph 1026mb 40f 27f
3:00 14 17 mph 1026mb 40f 27f
2:54 14 16 mph 1025.9mb 40f 27f
2:42 13 17 mph 1025.9mb 40f 27f
2:36 17 20 mph 1025.9mb 40f 27f
2:24 16 21 mph 1025.9mb 40f 27f
2:18 14 21 mph 1026mb 40f 27f
2:12 15 20 mph 1025.9mb 40f 27f
2:06 15 18 mph 1025.9mb 40f 27f
2:00 14 18 mph 1025.9mb 40f 27f
1:54 15 20 mph 1026mb 40f 27f
1:48 11 15 mph 1026mb 40f 27f
1:42 15 17 mph 1026mb 41f 27f
1:36 15 20 mph 1025.9mb 41f 27f
1:30 11 17 mph 1025.9mb 41f 27f
1:24 14 16 mph 1025.9mb 41f 27f
1:18 14 17 mph 1025.9mb 41f 27f
1:12 13 17 mph 1025.9mb 41f 27f
1:06 11 16 mph 1025.9mb 41f 27f
1:00 13 20 mph 1026mb 42f 27f
12:54 14 18 mph 1026mb 42f 27f
12:48 15 18 mph 1026mb 42f 27f
12:42 11 21 mph 1026mb 42f 27f
12:36 16 18 mph 1025.9mb 42f 27f
12:30 14 18 mph 1026mb 42f 27f
12:24 15 18 mph 1026.1mb 42f 27f
12:18 14 17 mph 1026.2mb 42f 27f
12:06 14 18 mph 1026.3mb 42f 27f
12:00 11 18 mph 1026.4mb 42f 27f
11:54 14 17 mph 1026.4mb 42f 27f
11:48 13 20 mph 1026.6mb 42f 26f
11:42 13 20 mph 1026.7mb 42f 26f
11:36 16 21 mph 1026.8mb 42f 26f
11:30 15 18 mph 1026.9mb 42f 26f
11:24 13 18 mph 1026.9mb 42f 26f
11:18 15 18 mph 1027mb 42f 26f
11:12 15 21 mph 1027mb 42f 25f
11:06 16 21 mph 1026.9mb 42f 26f
11:00 14 22 mph 1026.9mb 42f 26f
10:54 13 20 mph 1026.9mb 42f 26f
10:48 11 15 mph 1026.9mb 42f 26f
10:42 10 16 mph 1027mb 42f 26f
10:36 14 16 mph 1027mb 42f 26f
10:30 15 18 mph 1027.1mb 42f 25f
10:24 14 16 mph 1027.1mb 42f 25f
10:18 11 15 mph 1027.1mb 42f 25f
10:12 11 15 mph 1027.1mb 42f 25f
10:06 9 20 mph 1027.1mb 42f 25f
10:00 14 17 mph 1027.2mb 42f 25f
9:54 15 17 mph 1027.1mb 42f 25f
9:48 13 17 mph 1027.2mb 42f 25f
9:42 13 15 mph 1027.1mb 42f 25f
9:36 15 18 mph 1027.1mb 42f 24f
9:30 14 20 mph 1027mb 42f 25f
9:24 15 17 mph 1026.9mb 42f 24f
9:18 10 20 mph 1026.9mb 42f 24f
9:12 14 20 mph 1026.8mb 42f 24f
9:06 14 18 mph 1026.8mb 42f 24f
9:00 14 18 mph 1026.8mb 42f 24f
8:54 14 21 mph 1026.7mb 42f 24f
8:48 14 20 mph 1026.6mb 42f 24f
8:42 16 20 mph 1026.5mb 42f 24f
8:36 15 20 mph 1026.5mb 42f 24f
8:30 16 21 mph 1026.4mb 42f 24f
8:24 14 21 mph 1026.3mb 42f 24f
8:18 14 22 mph 1026.2mb 42f 24f
8:12 16 21 mph 1026.2mb 42f 24f
8:06 14 18 mph 1026.2mb 42f 24f
8:00 15 21 mph 1026.1mb 42f 23f
7:54 11 18 mph 1026mb 42f 24f
7:48 16 24 mph 1025.9mb 43f 23f
7:42 14 21 mph 1025.9mb 43f 24f
7:36 17 24 mph 1025.8mb 43f 23f
7:30 20 24 mph 1025.6mb 43f 23f
7:24 17 23 mph 1025.6mb 43f 24f
7:18 16 22 mph 1025.3mb 43f 24f
7:12 17 23 mph 1025.2mb 43f 24f
7:06 15 21 mph 1025.1mb 43f 25f
7:00 15 20 mph 1024.9mb 43f 25f
6:54 14 20 mph 1024.9mb 43f 25f
6:48 16 21 mph 1024.8mb 43f 25f
6:42 15 21 mph 1024.7mb 43f 25f
6:36 15 20 mph 1024.7mb 43f 25f
6:30 15 21 mph 1024.6mb 43f 25f
6:24 17 21 mph 1024.5mb 43f 25f
6:18 17 21 mph 1024.4mb 43f 25f
6:12 17 20 mph 1024.3mb 43f 26f
6:06 16 21 mph 1024.3mb 43f 26f
6:00 16 21 mph 1024.1mb 43f 26f
5:54 15 20 mph 1024.1mb 43f 26f
5:48 17 20 mph 1024.1mb 43f 26f
5:42 16 20 mph 1024mb 43f 26f
5:36 16 18 mph 1024mb 43f 26f
5:30 14 18 mph 1023.9mb 43f 26f
5:24 13 20 mph 1023.8mb 43f 26f
5:18 15 20 mph 1023.6mb 43f 26f
5:12 14 20 mph 1023.5mb 43f 26f
5:06 13 17 mph 1023.5mb 43f 26f
5:00 11 15 mph 1023.5mb 43f 26f
4:54 9 13 mph 1023.5mb 43f 26f
4:48 5 9 mph 1023.5mb 43f 26f
4:42 7 10 mph 1023.4mb 43f 26f
4:36 7 10 mph 1023.3mb 43f 26f
4:30 5 10 mph 1023.2mb 43f 26f
4:24 6 9 mph 1023mb 43f 26f
4:18 7 13 mph 1023mb 43f 26f
4:12 9 13 mph 1022.9mb 43f 26f
4:06 7 11 mph 1022.8mb 43f 27f
4:00 9 14 mph 1022.6mb 43f 27f
3:54 8 15 mph 1022.5mb 43f 27f
3:48 8 13 mph 1022.4mb 43f 27f
3:42 9 13 mph 1022.3mb 43f 27f
3:36 7 9 mph 1022.2mb 43f 27f
3:30 8 11 mph 1022.1mb 43f 27f
3:24 7 14 mph 1022.1mb 43f 27f
3:18 8 13 mph 1022mb 43f 27f
3:12 8 13 mph 1022mb 43f 27f
3:06 7 10 mph 1021.9mb 43f 27f
3:00 9 10 mph 1021.9mb 43f 27f
2:54 7 10 mph 1021.9mb 43f 27f
2:48 7 10 mph 1021.9mb 43f 27f
2:42 8 13 mph 1021.8mb 43f 27f
2:36 8 10 mph 1021.8mb 43f 27f
2:30 7 11 mph 1021.7mb 43f 27f
2:24 6 13 mph 1021.6mb 43f 27f
2:18 9 13 mph 1021.6mb 42f 26f
2:12 8 11 mph 1021.5mb 42f 26f
2:06 7 11 mph 1021.5mb 42f 26f
2:00 7 11 mph 1021.4mb 42f 27f
1:54 9 14 mph 1021.3mb 42f 26f
1:48 8 14 mph 1021.2mb 42f 26f
1:42 9 14 mph 1021.1mb 42f 26f
1:36 13 18 mph 1021.1mb 42f 26f
1:30 9 16 mph 1021.1mb 42f 26f
1:24 11 16 mph 1021mb 42f 27f
1:18 10 18 mph 1020.9mb 42f 26f
1:12 10 16 mph 1020.9mb 42f 26f
1:06 11 15 mph 1020.8mb 42f 27f
1:00 9 14 mph 1020.7mb 42f 27f
12:54 7 15 mph 1020.7mb 42f 27f
12:48 11 17 mph 1020.6mb 42f 26f
12:42 10 16 mph 1020.6mb 42f 27f
12:36 10 14 mph 1020.6mb 42f 27f
12:30 9 17 mph 1020.5mb 42f 27f
12:24 9 14 mph 1020.4mb 42f 27f
12:18 9 16 mph 1020.4mb 42f 27f
12:12 11 16 mph 1020.4mb 42f 27f
12:06 10 16 mph 1020.2mb 42f 27f
12:00 13 16 mph 1020.2mb 42f 27f
Sex 12/19 11:54 10 16 mph 1020.1mb 42f 27f
11:48 11 15 mph 1020mb 42f 27f
11:42 11 17 mph 1019.9mb 42f 27f
11:36 10 15 mph 1019.8mb 42f 27f
11:30 10 16 mph 1019.8mb 42f 27f
11:24 10 16 mph 1019.8mb 42f 27f
11:18 9 17 mph 1019.6mb 42f 27f
11:12 10 15 mph 1019.6mb 42f 27f
11:06 10 15 mph 1019.6mb 42f 27f
11:00 11 16 mph 1019.4mb 42f 27f
10:54 9 13 mph 1019.3mb 42f 28f
10:48 9 15 mph 1019.3mb 43f 28f
10:42 10 16 mph 1019.2mb 42f 28f
10:36 11 15 mph 1019.2mb 42f 28f
10:30 10 16 mph 1019.1mb 42f 28f
10:24 9 15 mph 1019.1mb 42f 28f
10:18 9 16 mph 1019.1mb 42f 28f
10:12 13 20 mph 1018.9mb 42f 28f
10:06 10 15 mph 1018.9mb 42f 28f
10:00 7 18 mph 1018.9mb 42f 29f
9:54 7 15 mph 1018.8mb 42f 29f
9:48 9 17 mph 1018.7mb 42f 29f
9:42 10 20 mph 1018.7mb 42f 29f
9:36 14 18 mph 1018.6mb 42f 29f
9:30 11 18 mph 1018.5mb 42f 29f
9:24 11 20 mph 1018.4mb 42f 29f
9:18 13 20 mph 1018.3mb 42f 29f
9:12 14 21 mph 1018.2mb 42f 29f
9:00 13 17 mph 1018mb 42f 29f
8:54 11 16 mph 1017.9mb 42f 29f
8:48 14 16 mph 1017.9mb 43f 29f
8:42 10 18 mph 1017.8mb 43f 30f
8:36 11 16 mph 1017.7mb 42f 30f
8:30 13 17 mph 1017.6mb 42f 30f
8:24 13 17 mph 1017.6mb 42f 30f
8:18 11 18 mph 1017.6mb 42f 30f
8:12 13 18 mph 1017.5mb 42f 30f
8:06 11 17 mph 1017.4mb 42f 30f
8:00 14 18 mph 1017.3mb 42f 30f
7:54 11 16 mph 1017.2mb 42f 31f
7:48 10 16 mph 1017.1mb 42f 31f
7:42 13 17 mph 1017mb 42f 31f
7:36 11 20 mph 1016.9mb 42f 31f
7:30 11 16 mph 1016.8mb 42f 31f
7:24 11 17 mph 1016.7mb 41f 31f
7:18 14 18 mph 1016.7mb 41f 31f
7:12 11 18 mph 1016.6mb 42f 31f
7:06 11 20 mph 1016.5mb 43f 31f
7:00 11 18 mph 1016.4mb 43f 31f
6:54 14 17 mph 1016.3mb 43f 31f
6:48 10 16 mph 1016.2mb 43f 31f
6:42 13 18 mph 1016.1mb 43f 31f
6:36 13 20 mph 1016mb 43f 31f
6:30 10 16 mph 1015.9mb 43f 32f
6:24 13 17 mph 1015.8mb 43f 31f
6:18 13 18 mph 1015.7mb 43f 31f
6:12 15 18 mph 1015.6mb 43f 31f
6:06 13 17 mph 1015.5mb 43f 31f
6:00 13 20 mph 1015.3mb 43f 31f
5:54 13 16 mph 1015.3mb 43f 31f
5:48 11 18 mph 1015.1mb 43f 31f
5:42 14 17 mph 1014.9mb 43f 32f
5:36 11 20 mph 1014.8mb 43f 32f
5:30 11 17 mph 1014.6mb 43f 32f
5:24 11 20 mph 1014.5mb 43f 32f
5:12 14 17 mph 1014.3mb 43f 32f
5:06 14 17 mph 1014.2mb 43f 31f
5:00 14 22 mph 1014.1mb 43f 32f
4:54 16 20 mph 1014mb 43f 32f
4:48 14 20 mph 1013.9mb 43f 32f
4:42 14 20 mph 1013.8mb 42f 32f
4:36 14 20 mph 1013.7mb 42f 32f
4:30 14 20 mph 1013.6mb 42f 32f
4:24 16 23 mph 1013.5mb 42f 32f
4:18 16 21 mph 1013.4mb 42f 32f
4:12 16 22 mph 1013.3mb 42f 32f
4:06 16 21 mph 1013.2mb 42f 32f
4:00 17 22 mph 1013.1mb 42f 32f
3:54 17 22 mph 1013mb 42f 32f
3:48 17 21 mph 1012.9mb 42f 32f
3:42 18 23 mph 1012.8mb 42f 32f
3:36 17 21 mph 1012.9mb 42f 32f
3:30 16 21 mph 1012.9mb 42f 32f
3:24 15 18 mph 1012.8mb 42f 32f
3:18 17 21 mph 1012.8mb 42f 32f
3:12 17 22 mph 1012.7mb 42f 32f
3:06 18 23 mph 1012.5mb 42f 32f
3:00 15 20 mph 1012.4mb 42f 32f
2:54 17 21 mph 1012.3mb 42f 31f
2:48 16 18 mph 1012.3mb 42f 32f
2:42 15 23 mph 1012.4mb 42f 32f
2:36 18 22 mph 1012.4mb 42f 32f
2:30 17 23 mph 1012.3mb 42f 32f
2:24 17 22 mph 1012.2mb 42f 32f
2:18 17 22 mph 1012.1mb 42f 31f
2:12 17 25 mph 1012.1mb 42f 31f
2:06 21 24 mph 1012.1mb 42f 31f
2:00 20 23 mph 1011.9mb 42f 31f
1:54 21 24 mph 1011.8mb 42f 31f
1:48 20 25 mph 1011.8mb 42f 32f
1:42 20 24 mph 1011.8mb 42f 31f
1:36 15 21 mph 1011.8mb 42f 31f
1:30 16 22 mph 1011.7mb 42f 31f
1:24 18 22 mph 1011.6mb 42f 31f
1:18 18 26 mph 1011.6mb 42f 31f
1:12 17 22 mph 1011.5mb 42f 31f
1:06 18 21 mph 1011.5mb 42f 31f
1:00 18 24 mph 1011.5mb 42f 31f
12:54 18 24 mph 1011.5mb 42f 31f
12:48 17 21 mph 1011.5mb 42f 31f
12:42 20 23 mph 1011.4mb 42f 32f
12:36 18 23 mph 1011.3mb 42f 31f
12:24 16 22 mph 1011.2mb 42f 32f
12:18 15 22 mph 1011mb 42f 32f
12:12 16 21 mph 1011mb 42f 31f
12:06 16 21 mph 1011mb 42f 32f
12:00 15 21 mph 1011mb 42f 31f
11:54 17 22 mph 1010.8mb 42f 31f
11:48 20 24 mph 1010.9mb 42f 31f
11:42 20 24 mph 1010.9mb 42f 31f
11:36 21 23 mph 1010.9mb 42f 31f
11:30 20 22 mph 1011mb 42f 31f
11:24 16 22 mph 1011mb 42f 31f
11:18 18 24 mph 1011.1mb 42f 31f
11:12 18 24 mph 1011.1mb 42f 31f
11:06 16 21 mph 1011.1mb 42f 31f
11:00 18 23 mph 1011.2mb 42f 31f
10:54 17 23 mph 1011.2mb 42f 31f
10:48 20 23 mph 1011.2mb 42f 31f
10:42 16 22 mph 1011.2mb 42f 31f
10:36 15 20 mph 1011.2mb 42f 31f
10:30 16 20 mph 1011.4mb 42f 31f
10:24 15 21 mph 1011.4mb 42f 31f
10:18 14 20 mph 1011.4mb 42f 31f
10:12 15 21 mph 1011.4mb 42f 31f
10:06 14 21 mph 1011.5mb 42f 31f
10:00 11 18 mph 1011.6mb 42f 31f
9:54 15 21 mph 1011.6mb 42f 30f
9:48 15 20 mph 1011.5mb 42f 31f
9:42 17 23 mph 1011.6mb 42f 30f
9:36 17 24 mph 1011.7mb 42f 30f
9:30 16 28 mph 1011.6mb 42f 31f
9:24 17 22 mph 1011.6mb 42f 31f
9:18 16 22 mph 1011.6mb 42f 31f
9:12 16 24 mph 1011.5mb 42f 31f
9:06 17 22 mph 1011.3mb 42f 31f
9:00 17 22 mph 1011.2mb 42f 30f
8:54 16 21 mph 1011.2mb 42f 31f
8:48 16 25 mph 1011.3mb 42f 31f
8:42 16 26 mph 1011.2mb 42f 31f
8:36 15 23 mph 1011mb 42f 31f
8:30 16 23 mph 1011mb 42f 31f
8:24 20 23 mph 1010.8mb 42f 31f
8:18 17 22 mph 1010.7mb 42f 31f
8:12 16 21 mph 1010.6mb 42f 31f
8:06 16 21 mph 1010.5mb 42f 31f
8:00 14 17 mph 1010.3mb 42f 31f
7:54 16 21 mph 1010.3mb 42f 31f
7:48 14 18 mph 1010.1mb 42f 31f
7:42 15 21 mph 1010.3mb 42f 31f
7:36 16 18 mph 1010.2mb 42f 31f
7:30 15 20 mph 1010.2mb 42f 31f
7:24 14 18 mph 1010mb 42f 31f
7:18 16 20 mph 1010mb 42f 31f
7:12 17 22 mph 1009.9mb 43f 31f
7:06 18 22 mph 1009.8mb 43f 31f
7:00 17 21 mph 1009.7mb 43f 31f
6:54 16 21 mph 1009.5mb 43f 31f
6:48 16 21 mph 1009.3mb 42f 31f
6:42 16 21 mph 1009.3mb 42f 31f
6:36 16 22 mph 1009.1mb 42f 31f
6:30 15 20 mph 1008.9mb 43f 31f
6:24 16 20 mph 1008.9mb 43f 31f
6:18 16 18 mph 1008.9mb 42f 31f
6:12 15 22 mph 1008.8mb 42f 31f
6:06 17 20 mph 1008.7mb 42f 31f
6:00 16 23 mph 1008.6mb 43f 31f
5:54 17 23 mph 1008.4mb 43f 31f
5:48 18 23 mph 1008.4mb 43f 31f
5:42 17 21 mph 1008.4mb 43f 31f
5:36 16 21 mph 1008.3mb 43f 31f
5:30 16 20 mph 1008.2mb 43f 31f
5:24 16 18 mph 1008.2mb 43f 31f
5:18 15 18 mph 1008.2mb 43f 31f
5:12 15 20 mph 1008.3mb 43f 31f
5:06 15 20 mph 1008.1mb 43f 31f
5:00 16 20 mph 1008mb 43f 31f
4:54 16 18 mph 1008mb 43f 31f
4:48 16 22 mph 1007.9mb 43f 31f
4:42 17 21 mph 1007.8mb 42f 31f
4:36 16 20 mph 1007.8mb 42f 32f
4:30 17 20 mph 1007.8mb 42f 31f
4:24 17 20 mph 1007.8mb 42f 31f
4:18 16 18 mph 1007.7mb 42f 31f
4:12 15 20 mph 1007.7mb 42f 31f
4:06 16 18 mph 1007.7mb 42f 31f
4:00 16 20 mph 1007.7mb 42f 31f
3:54 15 21 mph 1007.5mb 42f 31f
3:48 15 20 mph 1007.4mb 42f 31f
3:42 16 21 mph 1007.4mb 43f 31f
3:36 16 20 mph 1007.3mb 43f 31f
3:30 16 20 mph 1007.3mb 43f 31f
3:24 16 18 mph 1007.2mb 43f 31f
3:06 14 17 mph 1007.4mb 42f 31f
3:00 14 21 mph 1007.4mb 42f 31f
2:54 14 21 mph 1007.4mb 42f 31f
2:48 15 17 mph 1007.5mb 42f 31f
2:42 14 17 mph 1007.4mb 42f 31f
2:36 15 20 mph 1007.4mb 42f 32f
2:30 15 20 mph 1007.3mb 42f 32f
2:24 14 20 mph 1007.2mb 42f 31f
2:18 15 20 mph 1007.2mb 42f 32f
2:12 15 21 mph 1007.2mb 42f 32f
2:06 20 23 mph 1007.1mb 42f 32f
2:00 20 24 mph 1007mb 42f 32f
1:54 21 24 mph 1007.1mb 42f 32f
1:48 21 25 mph 1007mb 42f 32f
1:42 18 23 mph 1006.9mb 42f 31f
1:36 18 23 mph 1006.9mb 42f 31f
1:30 16 23 mph 1006.9mb 42f 31f
1:24 16 21 mph 1006.8mb 42f 31f
1:18 20 25 mph 1006.8mb 42f 32f
1:12 22 26 mph 1006.8mb 42f 32f
1:06 22 24 mph 1006.7mb 42f 32f
12:54 22 26 mph 1006.5mb 42f 31f
12:48 22 28 mph 1006.4mb 42f 32f
12:42 24 30 mph 1006.5mb 42f 32f
12:36 24 30 mph 1006.5mb 42f 32f
12:30 25 29 mph 1006.4mb 42f 32f
12:24 23 31 mph 1006.4mb 42f 32f
12:18 24 30 mph 1006.4mb 42f 32f
12:12 22 28 mph 1006.5mb 42f 32f
12:06 22 31 mph 1006.5mb 42f 32f
12:00 22 26 mph 1006.4mb 42f 32f
Qui 12/18 11:54 21 28 mph 1006.4mb 42f 32f
11:48 22 26 mph 1006.4mb 42f 32f
11:42 17 23 mph 1006.4mb 42f 32f